sensor_id;sensor_type;location;lat;lon;timestamp;P1;durP1;ratioP1;P2;durP2;ratioP2
23684;SDS011;12020;51.384;6.908;2023-07-08T02:13:52;4.10;;;3.00;;
23684;SDS011;12020;51.384;6.908;2023-07-08T02:16:20;3.50;;;3.20;;
23684;SDS011;12020;51.384;6.908;2023-07-08T02:18:49;3.97;;;3.35;;
23684;SDS011;12020;51.384;6.908;2023-07-08T02:24:00;4.55;;;3.25;;
23684;SDS011;12020;51.384;6.908;2023-07-08T02:26:26;4.15;;;3.10;;
23684;SDS011;12020;51.384;6.908;2023-07-08T02:28:57;3.42;;;3.10;;
23684;SDS011;12020;51.384;6.908;2023-07-08T02:31:23;3.55;;;3.20;;
23684;SDS011;12020;51.384;6.908;2023-07-08T02:33:51;3.30;;;3.00;;
23684;SDS011;12020;51.384;6.908;2023-07-08T02:36:25;5.18;;;3.20;;
23684;SDS011;12020;51.384;6.908;2023-07-08T02:38:55;4.20;;;2.90;;
23684;SDS011;12020;51.384;6.908;2023-07-08T02:41:20;3.70;;;2.90;;
23684;SDS011;12020;51.384;6.908;2023-07-08T02:46:17;3.97;;;3.30;;
23684;SDS011;12020;51.384;6.908;2023-07-08T02:48:54;3.65;;;3.25;;
23684;SDS011;12020;51.384;6.908;2023-07-08T02:51:20;4.57;;;3.30;;
23684;SDS011;12020;51.384;6.908;2023-07-08T02:53:48;4.60;;;3.60;;
23684;SDS011;12020;51.384;6.908;2023-07-08T02:58:47;4.43;;;3.40;;
23684;SDS011;12020;51.384;6.908;2023-07-08T03:03:46;5.30;;;3.40;;
23684;SDS011;12020;51.384;6.908;2023-07-08T03:06:30;4.95;;;3.55;;
23684;SDS011;12020;51.384;6.908;2023-07-08T03:08:58;4.55;;;3.50;;
23684;SDS011;12020;51.384;6.908;2023-07-08T03:11:31;4.30;;;3.30;;
23684;SDS011;12020;51.384;6.908;2023-07-08T03:13:57;4.03;;;3.42;;
23684;SDS011;12020;51.384;6.908;2023-07-08T03:16:24;3.90;;;3.30;;
23684;SDS011;12020;51.384;6.908;2023-07-08T03:18:56;4.15;;;3.35;;
23684;SDS011;12020;51.384;6.908;2023-07-08T03:21:40;4.40;;;3.67;;
23684;SDS011;12020;51.384;6.908;2023-07-08T03:24:09;4.00;;;3.30;;
23684;SDS011;12020;51.384;6.908;2023-07-08T03:26:39;4.50;;;3.30;;
23684;SDS011;12020;51.384;6.908;2023-07-08T03:29:12;3.77;;;3.07;;
23684;SDS011;12020;51.384;6.908;2023-07-08T03:34:13;4.00;;;3.28;;
23684;SDS011;12020;51.384;6.908;2023-07-08T03:36:47;4.45;;;3.50;;
23684;SDS011;12020;51.384;6.908;2023-07-08T03:39:17;3.78;;;3.30;;
23684;SDS011;12020;51.384;6.908;2023-07-08T03:41:44;4.30;;;3.70;;
23684;SDS011;12020;51.384;6.908;2023-07-08T03:44:12;4.68;;;3.60;;
23684;SDS011;12020;51.384;6.908;2023-07-08T03:46:44;5.10;;;4.10;;
23684;SDS011;12020;51.384;6.908;2023-07-08T03:49:12;3.80;;;3.45;;
23684;SDS011;12020;51.384;6.908;2023-07-08T03:51:42;4.40;;;3.17;;
23684;SDS011;12020;51.384;6.908;2023-07-08T03:54:11;4.15;;;3.50;;
23684;SDS011;12020;51.384;6.908;2023-07-08T03:56:38;3.80;;;3.43;;
23684;SDS011;12020;51.384;6.908;2023-07-08T03:59:05;3.95;;;3.40;;
23684;SDS011;12020;51.384;6.908;2023-07-08T04:01:31;3.92;;;3.53;;
23684;SDS011;12020;51.384;6.908;2023-07-08T04:03:58;4.90;;;3.50;;
23684;SDS011;12020;51.384;6.908;2023-07-08T04:06:27;4.53;;;3.88;;
23684;SDS011;12020;51.384;6.908;2023-07-08T04:11:26;4.10;;;3.60;;
23684;SDS011;12020;51.384;6.908;2023-07-08T04:13:52;5.40;;;3.50;;
23684;SDS011;12020;51.384;6.908;2023-07-08T04:18:49;4.43;;;3.57;;
23684;SDS011;12020;51.384;6.908;2023-07-08T04:21:18;4.53;;;3.75;;
23684;SDS011;12020;51.384;6.908;2023-07-08T04:23:44;4.82;;;3.30;;
23684;SDS011;12020;51.384;6.908;2023-07-08T04:26:10;6.27;;;3.80;;
23684;SDS011;12020;51.384;6.908;2023-07-08T04:28:36;5.47;;;3.60;;
23684;SDS011;12020;51.384;6.908;2023-07-08T04:31:02;4.55;;;3.30;;
23684;SDS011;12020;51.384;6.908;2023-07-08T04:33:29;4.05;;;3.63;;
23684;SDS011;12020;51.384;6.908;2023-07-08T04:35:55;4.40;;;3.60;;
23684;SDS011;12020;51.384;6.908;2023-07-08T04:38:22;4.90;;;3.45;;
23684;SDS011;12020;51.384;6.908;2023-07-08T04:40:49;4.28;;;3.42;;
23684;SDS011;12020;51.384;6.908;2023-07-08T04:43:18;3.80;;;3.30;;
23684;SDS011;12020;51.384;6.908;2023-07-08T04:45:46;3.93;;;3.43;;
23684;SDS011;12020;51.384;6.908;2023-07-08T04:48:15;3.80;;;3.33;;
23684;SDS011;12020;51.384;6.908;2023-07-08T04:50:45;3.97;;;3.30;;
23684;SDS011;12020;51.384;6.908;2023-07-08T04:53:14;4.53;;;3.37;;
23684;SDS011;12020;51.384;6.908;2023-07-08T04:55:42;3.53;;;3.22;;
23684;SDS011;12020;51.384;6.908;2023-07-08T04:58:10;4.70;;;3.58;;
23684;SDS011;12020;51.384;6.908;2023-07-08T05:00:35;4.03;;;3.47;;
23684;SDS011;12020;51.384;6.908;2023-07-08T05:03:01;4.50;;;3.53;;
23684;SDS011;12020;51.384;6.908;2023-07-08T05:05:27;5.60;;;3.57;;
23684;SDS011;12020;51.384;6.908;2023-07-08T05:07:52;4.88;;;3.33;;
23684;SDS011;12020;51.384;6.908;2023-07-08T05:10:18;3.53;;;3.22;;
23684;SDS011;12020;51.384;6.908;2023-07-08T05:12:45;5.10;;;3.88;;
23684;SDS011;12020;51.384;6.908;2023-07-08T05:15:11;4.25;;;3.65;;
23684;SDS011;12020;51.384;6.908;2023-07-08T05:17:38;4.85;;;3.80;;
23684;SDS011;12020;51.384;6.908;2023-07-08T05:20:05;5.93;;;3.67;;
23684;SDS011;12020;51.384;6.908;2023-07-08T05:22:36;4.13;;;3.67;;
23684;SDS011;12020;51.384;6.908;2023-07-08T05:25:02;5.60;;;3.80;;
23684;SDS011;12020;51.384;6.908;2023-07-08T05:27:28;4.47;;;3.80;;
23684;SDS011;12020;51.384;6.908;2023-07-08T05:29:54;5.25;;;3.90;;
23684;SDS011;12020;51.384;6.908;2023-07-08T05:32:20;5.10;;;3.90;;
23684;SDS011;12020;51.384;6.908;2023-07-08T05:34:49;4.10;;;3.60;;
23684;SDS011;12020;51.384;6.908;2023-07-08T05:37:15;4.75;;;3.72;;
23684;SDS011;12020;51.384;6.908;2023-07-08T05:39:45;4.18;;;3.55;;
23684;SDS011;12020;51.384;6.908;2023-07-08T05:42:12;5.65;;;4.18;;
23684;SDS011;12020;51.384;6.908;2023-07-08T05:44:39;4.55;;;3.72;;
23684;SDS011;12020;51.384;6.908;2023-07-08T05:47:06;3.92;;;3.50;;
23684;SDS011;12020;51.384;6.908;2023-07-08T05:49:31;4.20;;;3.50;;
23684;SDS011;12020;51.384;6.908;2023-07-08T05:51:59;4.55;;;3.70;;
23684;SDS011;12020;51.384;6.908;2023-07-08T05:54:30;5.25;;;3.85;;
23684;SDS011;12020;51.384;6.908;2023-07-08T05:56:56;6.78;;;3.97;;
23684;SDS011;12020;51.384;6.908;2023-07-08T05:59:21;4.18;;;3.78;;
23684;SDS011;12020;51.384;6.908;2023-07-08T06:01:47;5.07;;;4.17;;
23684;SDS011;12020;51.384;6.908;2023-07-08T06:04:13;4.00;;;3.60;;
23684;SDS011;12020;51.384;6.908;2023-07-08T06:06:38;4.88;;;3.72;;
23684;SDS011;12020;51.384;6.908;2023-07-08T06:09:04;5.32;;;4.03;;
23684;SDS011;12020;51.384;6.908;2023-07-08T06:11:31;4.63;;;3.80;;
23684;SDS011;12020;51.384;6.908;2023-07-08T06:13:56;5.03;;;3.70;;
23684;SDS011;12020;51.384;6.908;2023-07-08T06:16:23;3.85;;;3.40;;
23684;SDS011;12020;51.384;6.908;2023-07-08T06:18:48;5.32;;;3.80;;
23684;SDS011;12020;51.384;6.908;2023-07-08T06:21:14;4.50;;;3.93;;
23684;SDS011;12020;51.384;6.908;2023-07-08T06:23:40;5.63;;;3.93;;
23684;SDS011;12020;51.384;6.908;2023-07-08T06:26:05;4.65;;;4.07;;
23684;SDS011;12020;51.384;6.908;2023-07-08T06:28:31;5.30;;;3.88;;
23684;SDS011;12020;51.384;6.908;2023-07-08T06:30:56;4.30;;;3.60;;
23684;SDS011;12020;51.384;6.908;2023-07-08T06:33:22;3.90;;;3.50;;
23684;SDS011;12020;51.384;6.908;2023-07-08T06:35:48;5.30;;;3.92;;
23684;SDS011;12020;51.384;6.908;2023-07-08T06:38:13;4.60;;;3.70;;
23684;SDS011;12020;51.384;6.908;2023-07-08T06:40:39;5.30;;;3.70;;
23684;SDS011;12020;51.384;6.908;2023-07-08T06:43:05;5.23;;;4.20;;
23684;SDS011;12020;51.384;6.908;2023-07-08T06:45:30;4.53;;;4.07;;
23684;SDS011;12020;51.384;6.908;2023-07-08T06:47:56;5.35;;;4.00;;
23684;SDS011;12020;51.384;6.908;2023-07-08T06:50:22;4.78;;;4.05;;
23684;SDS011;12020;51.384;6.908;2023-07-08T06:52:47;4.80;;;4.10;;
23684;SDS011;12020;51.384;6.908;2023-07-08T06:55:13;5.53;;;4.00;;
23684;SDS011;12020;51.384;6.908;2023-07-08T06:57:39;4.80;;;4.28;;
23684;SDS011;12020;51.384;6.908;2023-07-08T07:00:06;5.80;;;4.20;;
23684;SDS011;12020;51.384;6.908;2023-07-08T07:02:33;4.30;;;3.90;;
23684;SDS011;12020;51.384;6.908;2023-07-08T07:04:59;4.68;;;4.10;;
23684;SDS011;12020;51.384;6.908;2023-07-08T07:07:25;5.47;;;4.28;;
23684;SDS011;12020;51.384;6.908;2023-07-08T07:09:53;4.93;;;4.20;;
23684;SDS011;12020;51.384;6.908;2023-07-08T07:12:18;4.68;;;3.97;;
23684;SDS011;12020;51.384;6.908;2023-07-08T07:14:44;6.13;;;4.20;;
23684;SDS011;12020;51.384;6.908;2023-07-08T07:17:10;5.70;;;3.87;;
23684;SDS011;12020;51.384;6.908;2023-07-08T07:19:35;4.68;;;4.18;;
23684;SDS011;12020;51.384;6.908;2023-07-08T07:22:01;4.55;;;4.15;;
23684;SDS011;12020;51.384;6.908;2023-07-08T07:24:27;5.10;;;4.43;;
23684;SDS011;12020;51.384;6.908;2023-07-08T07:26:52;5.10;;;4.27;;
23684;SDS011;12020;51.384;6.908;2023-07-08T07:29:21;5.17;;;4.43;;
23684;SDS011;12020;51.384;6.908;2023-07-08T07:31:48;7.20;;;5.00;;
23684;SDS011;12020;51.384;6.908;2023-07-08T09:01:10;5.63;;;5.03;;
23684;SDS011;12020;51.384;6.908;2023-07-08T09:14:47;8.45;;;5.65;;
23684;SDS011;12020;51.384;6.908;2023-07-08T09:43:25;5.27;;;4.70;;
23684;SDS011;12020;51.384;6.908;2023-07-08T10:06:53;5.10;;;4.30;;
23684;SDS011;12020;51.384;6.908;2023-07-08T10:11:56;7.68;;;5.03;;
23684;SDS011;12020;51.384;6.908;2023-07-08T10:14:33;5.20;;;4.40;;
23684;SDS011;12020;51.384;6.908;2023-07-08T10:17:22;4.53;;;4.13;;
23684;SDS011;12020;51.384;6.908;2023-07-08T10:20:10;4.88;;;4.28;;
23684;SDS011;12020;51.384;6.908;2023-07-08T10:51:46;5.13;;;3.83;;
23684;SDS011;12020;51.384;6.908;2023-07-08T10:54:27;5.50;;;3.97;;
23684;SDS011;12020;51.384;6.908;2023-07-08T11:08:22;5.65;;;3.80;;
23684;SDS011;12020;51.384;6.908;2023-07-08T11:14:04;5.10;;;3.97;;
23684;SDS011;12020;51.384;6.908;2023-07-08T11:16:45;6.22;;;3.60;;
23684;SDS011;12020;51.384;6.908;2023-07-08T11:19:29;5.97;;;3.90;;
23684;SDS011;12020;51.384;6.908;2023-07-08T11:24:47;6.80;;;3.95;;
23684;SDS011;12020;51.384;6.908;2023-07-08T11:27:37;4.50;;;4.10;;
23684;SDS011;12020;51.384;6.908;2023-07-08T11:32:42;6.27;;;3.67;;
23684;SDS011;12020;51.384;6.908;2023-07-08T11:37:59;6.15;;;3.80;;
23684;SDS011;12020;51.384;6.908;2023-07-08T11:43:14;6.15;;;4.22;;
23684;SDS011;12020;51.384;6.908;2023-07-08T11:45:49;6.05;;;3.83;;
23684;SDS011;12020;51.384;6.908;2023-07-08T11:48:21;3.90;;;3.50;;
23684;SDS011;12020;51.384;6.908;2023-07-08T11:50:50;5.45;;;3.75;;
23684;SDS011;12020;51.384;6.908;2023-07-08T11:56:00;5.22;;;3.80;;
23684;SDS011;12020;51.384;6.908;2023-07-08T12:02:12;5.65;;;3.95;;
23684;SDS011;12020;51.384;6.908;2023-07-08T12:04:29;6.47;;;3.75;;
23684;SDS011;12020;51.384;6.908;2023-07-08T12:07:15;5.68;;;3.88;;
23684;SDS011;12020;51.384;6.908;2023-07-08T12:12:42;4.03;;;3.47;;
23684;SDS011;12020;51.384;6.908;2023-07-08T12:18:15;5.65;;;3.75;;
23684;SDS011;12020;51.384;6.908;2023-07-08T12:20:55;6.45;;;3.90;;
23684;SDS011;12020;51.384;6.908;2023-07-08T12:23:24;5.70;;;4.00;;
23684;SDS011;12020;51.384;6.908;2023-07-08T12:25:52;4.80;;;4.05;;
23684;SDS011;12020;51.384;6.908;2023-07-08T12:28:19;5.30;;;3.90;;
23684;SDS011;12020;51.384;6.908;2023-07-08T12:30:49;5.60;;;3.47;;
23684;SDS011;12020;51.384;6.908;2023-07-08T12:33:19;6.28;;;4.03;;
23684;SDS011;12020;51.384;6.908;2023-07-08T12:35:52;5.05;;;3.92;;
23684;SDS011;12020;51.384;6.908;2023-07-08T12:38:26;4.40;;;4.00;;
23684;SDS011;12020;51.384;6.908;2023-07-08T12:41:01;4.60;;;4.05;;
23684;SDS011;12020;51.384;6.908;2023-07-08T12:43:35;4.72;;;3.70;;
23684;SDS011;12020;51.384;6.908;2023-07-08T12:46:00;5.17;;;3.73;;
23684;SDS011;12020;51.384;6.908;2023-07-08T12:48:34;5.65;;;3.80;;
23684;SDS011;12020;51.384;6.908;2023-07-08T12:51:04;4.68;;;3.58;;
23684;SDS011;12020;51.384;6.908;2023-07-08T12:53:31;3.95;;;3.42;;
23684;SDS011;12020;51.384;6.908;2023-07-08T12:55:59;4.90;;;3.85;;
23684;SDS011;12020;51.384;6.908;2023-07-08T12:58:28;4.15;;;3.63;;
23684;SDS011;12020;51.384;6.908;2023-07-08T13:00:56;4.10;;;3.40;;
23684;SDS011;12020;51.384;6.908;2023-07-08T13:03:26;5.07;;;3.42;;
23684;SDS011;12020;51.384;6.908;2023-07-08T13:05:54;3.80;;;3.40;;
23684;SDS011;12020;51.384;6.908;2023-07-08T13:08:22;5.32;;;3.45;;
23684;SDS011;12020;51.384;6.908;2023-07-08T13:10:52;4.53;;;3.35;;
23684;SDS011;12020;51.384;6.908;2023-07-08T13:13:22;3.42;;;3.10;;
23684;SDS011;12020;51.384;6.908;2023-07-08T13:15:50;4.53;;;3.70;;
23684;SDS011;12020;51.384;6.908;2023-07-08T13:18:28;6.28;;;3.63;;
23684;SDS011;12020;51.384;6.908;2023-07-08T13:20:54;3.90;;;3.28;;
23684;SDS011;12020;51.384;6.908;2023-07-08T13:23:21;4.07;;;3.15;;
23684;SDS011;12020;51.384;6.908;2023-07-08T13:25:51;5.05;;;3.40;;
23684;SDS011;12020;51.384;6.908;2023-07-08T13:30:54;4.43;;;3.10;;
23684;SDS011;12020;51.384;6.908;2023-07-08T13:33:31;4.32;;;3.40;;
23684;SDS011;12020;51.384;6.908;2023-07-08T13:36:00;4.65;;;3.70;;
23684;SDS011;12020;51.384;6.908;2023-07-08T13:38:32;4.20;;;2.88;;
23684;SDS011;12020;51.384;6.908;2023-07-08T13:41:03;4.82;;;3.08;;
23684;SDS011;12020;51.384;6.908;2023-07-08T13:43:32;5.60;;;3.47;;
23684;SDS011;12020;51.384;6.908;2023-07-08T13:45:59;3.90;;;3.47;;
23684;SDS011;12020;51.384;6.908;2023-07-08T13:48:43;5.15;;;3.30;;
23684;SDS011;12020;51.384;6.908;2023-07-08T13:51:11;5.40;;;3.55;;
23684;SDS011;12020;51.384;6.908;2023-07-08T13:53:57;4.75;;;3.38;;
23684;SDS011;12020;51.384;6.908;2023-07-08T13:56:32;4.60;;;3.30;;
23684;SDS011;12020;51.384;6.908;2023-07-08T13:59:03;3.77;;;3.20;;
23684;SDS011;12020;51.384;6.908;2023-07-08T14:01:32;5.50;;;3.65;;
23684;SDS011;12020;51.384;6.908;2023-07-08T14:03:59;4.27;;;3.37;;
23684;SDS011;12020;51.384;6.908;2023-07-08T14:06:29;4.85;;;3.60;;
23684;SDS011;12020;51.384;6.908;2023-07-08T14:08:58;3.87;;;3.10;;
23684;SDS011;12020;51.384;6.908;2023-07-08T14:11:34;3.65;;;3.17;;
23684;SDS011;12020;51.384;6.908;2023-07-08T14:14:00;3.92;;;3.20;;
23684;SDS011;12020;51.384;6.908;2023-07-08T14:16:27;5.47;;;3.50;;
23684;SDS011;12020;51.384;6.908;2023-07-08T14:18:55;4.38;;;3.30;;
23684;SDS011;12020;51.384;6.908;2023-07-08T14:21:23;3.95;;;3.35;;
23684;SDS011;12020;51.384;6.908;2023-07-08T14:23:49;3.70;;;3.15;;
23684;SDS011;12020;51.384;6.908;2023-07-08T14:26:14;3.90;;;3.30;;
23684;SDS011;12020;51.384;6.908;2023-07-08T14:28:40;4.57;;;3.38;;
23684;SDS011;12020;51.384;6.908;2023-07-08T14:31:12;4.10;;;3.40;;
23684;SDS011;12020;51.384;6.908;2023-07-08T14:33:42;4.57;;;3.17;;
23684;SDS011;12020;51.384;6.908;2023-07-08T14:36:11;4.10;;;3.35;;
23684;SDS011;12020;51.384;6.908;2023-07-08T14:38:37;3.80;;;3.30;;
23684;SDS011;12020;51.384;6.908;2023-07-08T14:41:03;4.10;;;3.03;;
23684;SDS011;12020;51.384;6.908;2023-07-08T14:43:30;4.00;;;3.25;;
23684;SDS011;12020;51.384;6.908;2023-07-08T14:45:58;4.10;;;3.28;;
23684;SDS011;12020;51.384;6.908;2023-07-08T14:48:29;4.60;;;3.30;;
23684;SDS011;12020;51.384;6.908;2023-07-08T14:50:56;5.15;;;3.33;;
23684;SDS011;12020;51.384;6.908;2023-07-08T14:53:22;3.60;;;2.80;;
23684;SDS011;12020;51.384;6.908;2023-07-08T14:55:49;4.25;;;3.30;;
23684;SDS011;12020;51.384;6.908;2023-07-08T15:01:04;4.78;;;3.47;;
23684;SDS011;12020;51.384;6.908;2023-07-08T15:03:43;4.95;;;3.60;;
23684;SDS011;12020;51.384;6.908;2023-07-08T15:06:16;6.90;;;3.95;;
23684;SDS011;12020;51.384;6.908;2023-07-08T15:08:43;6.28;;;3.97;;
23684;SDS011;12020;51.384;6.908;2023-07-08T15:11:11;5.20;;;3.78;;
23684;SDS011;12020;51.384;6.908;2023-07-08T15:16:14;4.78;;;3.67;;
23684;SDS011;12020;51.384;6.908;2023-07-08T15:21:26;5.90;;;3.50;;
23684;SDS011;12020;51.384;6.908;2023-07-08T15:23:51;5.45;;;3.72;;
23684;SDS011;12020;51.384;6.908;2023-07-08T15:28:49;6.30;;;3.70;;
23684;SDS011;12020;51.384;6.908;2023-07-08T15:31:17;4.20;;;3.60;;
23684;SDS011;12020;51.384;6.908;2023-07-08T15:33:47;6.15;;;3.80;;
23684;SDS011;12020;51.384;6.908;2023-07-08T15:36:14;4.55;;;3.67;;
23684;SDS011;12020;51.384;6.908;2023-07-08T15:38:41;5.67;;;3.83;;
23684;SDS011;12020;51.384;6.908;2023-07-08T15:41:24;5.93;;;4.03;;
23684;SDS011;12020;51.384;6.908;2023-07-08T15:43:55;6.32;;;3.80;;
23684;SDS011;12020;51.384;6.908;2023-07-08T15:46:22;5.32;;;3.97;;
23684;SDS011;12020;51.384;6.908;2023-07-08T15:48:54;6.07;;;4.00;;
23684;SDS011;12020;51.384;6.908;2023-07-08T15:51:19;5.93;;;3.70;;
23684;SDS011;12020;51.384;6.908;2023-07-08T15:53:45;5.90;;;4.00;;
23684;SDS011;12020;51.384;6.908;2023-07-08T15:56:11;4.93;;;3.60;;
23684;SDS011;12020;51.384;6.908;2023-07-08T15:58:39;6.00;;;3.85;;
23684;SDS011;12020;51.384;6.908;2023-07-08T16:01:07;6.22;;;3.88;;
23684;SDS011;12020;51.384;6.908;2023-07-08T16:03:57;7.50;;;4.20;;
23684;SDS011;12020;51.384;6.908;2023-07-08T16:06:32;4.10;;;3.60;;
23684;SDS011;12020;51.384;6.908;2023-07-08T16:08:57;5.50;;;3.78;;
23684;SDS011;12020;51.384;6.908;2023-07-08T16:13:58;5.87;;;3.60;;
23684;SDS011;12020;51.384;6.908;2023-07-08T16:16:24;6.82;;;4.10;;
23684;SDS011;12020;51.384;6.908;2023-07-08T16:18:50;5.53;;;3.90;;
23684;SDS011;12020;51.384;6.908;2023-07-08T16:21:17;4.20;;;3.50;;
23684;SDS011;12020;51.384;6.908;2023-07-08T16:23:42;5.18;;;3.58;;
23684;SDS011;12020;51.384;6.908;2023-07-08T16:26:12;5.40;;;3.67;;
23684;SDS011;12020;51.384;6.908;2023-07-08T16:28:41;6.10;;;4.10;;
23684;SDS011;12020;51.384;6.908;2023-07-08T17:11:09;4.47;;;4.00;;
23684;SDS011;12020;51.384;6.908;2023-07-08T17:13:35;5.38;;;4.07;;
23684;SDS011;12020;51.384;6.908;2023-07-08T17:16:01;4.45;;;3.60;;
23684;SDS011;12020;51.384;6.908;2023-07-08T17:18:29;5.43;;;3.80;;
23684;SDS011;12020;51.384;6.908;2023-07-08T17:20:58;4.88;;;3.90;;
23684;SDS011;12020;51.384;6.908;2023-07-08T17:23:52;4.93;;;4.00;;
23684;SDS011;12020;51.384;6.908;2023-07-08T17:26:33;5.45;;;4.20;;
23684;SDS011;12020;51.384;6.908;2023-07-08T17:28:59;5.47;;;4.20;;
23684;SDS011;12020;51.384;6.908;2023-07-08T17:31:34;5.03;;;3.75;;
23684;SDS011;12020;51.384;6.908;2023-07-08T17:34:11;6.40;;;3.92;;
23684;SDS011;12020;51.384;6.908;2023-07-08T17:39:23;4.47;;;4.03;;
23684;SDS011;12020;51.384;6.908;2023-07-08T17:41:51;6.05;;;4.07;;
23684;SDS011;12020;51.384;6.908;2023-07-08T19:59:40;6.82;;;5.22;;
23684;SDS011;12020;51.384;6.908;2023-07-08T20:04:33;6.38;;;4.80;;
23684;SDS011;12020;51.384;6.908;2023-07-08T20:07:10;6.15;;;5.38;;
23684;SDS011;12020;51.384;6.908;2023-07-08T20:09:43;6.95;;;5.13;;
23684;SDS011;12020;51.384;6.908;2023-07-08T20:12:16;6.05;;;4.88;;
23684;SDS011;12020;51.384;6.908;2023-07-08T20:14:43;5.60;;;4.80;;
23684;SDS011;12020;51.384;6.908;2023-07-08T20:17:12;6.68;;;5.35;;
23684;SDS011;12020;51.384;6.908;2023-07-08T20:19:42;6.85;;;5.00;;
23684;SDS011;12020;51.384;6.908;2023-07-08T20:22:12;6.65;;;4.95;;
23684;SDS011;12020;51.384;6.908;2023-07-08T20:27:19;6.67;;;5.00;;
23684;SDS011;12020;51.384;6.908;2023-07-08T20:29:57;6.10;;;4.50;;
23684;SDS011;12020;51.384;6.908;2023-07-08T20:32:25;6.03;;;4.88;;
23684;SDS011;12020;51.384;6.908;2023-07-08T20:34:54;6.80;;;4.78;;
23684;SDS011;12020;51.384;6.908;2023-07-08T20:37:22;6.22;;;4.47;;
23684;SDS011;12020;51.384;6.908;2023-07-08T20:50:30;6.75;;;4.30;;
23684;SDS011;12020;51.384;6.908;2023-07-08T22:22:31;5.90;;;3.83;;
23684;SDS011;12020;51.384;6.908;2023-07-08T22:25:12;5.65;;;3.70;;
23684;SDS011;12020;51.384;6.908;2023-07-08T22:27:47;4.72;;;3.60;;
23684;SDS011;12020;51.384;6.908;2023-07-08T22:30:20;4.50;;;4.10;;
23684;SDS011;12020;51.384;6.908;2023-07-08T22:32:50;5.97;;;4.38;;
23684;SDS011;12020;51.384;6.908;2023-07-08T22:35:20;5.05;;;3.80;;
23684;SDS011;12020;51.384;6.908;2023-07-08T22:38:01;4.97;;;3.88;;
23684;SDS011;12020;51.384;6.908;2023-07-08T22:40:32;4.88;;;3.80;;
23684;SDS011;12020;51.384;6.908;2023-07-08T22:43:23;4.45;;;3.78;;
23684;SDS011;12020;51.384;6.908;2023-07-08T22:45:53;5.13;;;3.80;;
23684;SDS011;12020;51.384;6.908;2023-07-08T22:48:25;5.57;;;4.00;;
23684;SDS011;12020;51.384;6.908;2023-07-08T22:50:54;4.78;;;3.90;;
23684;SDS011;12020;51.384;6.908;2023-07-08T22:59:03;4.97;;;4.03;;
23684;SDS011;12020;51.384;6.908;2023-07-08T23:01:34;4.93;;;4.10;;
23684;SDS011;12020;51.384;6.908;2023-07-08T23:04:01;4.57;;;3.80;;
23684;SDS011;12020;51.384;6.908;2023-07-08T23:06:48;6.00;;;4.28;;
23684;SDS011;12020;51.384;6.908;2023-07-08T23:09:15;5.40;;;3.85;;
23684;SDS011;12020;51.384;6.908;2023-07-08T23:11:45;5.03;;;3.80;;
23684;SDS011;12020;51.384;6.908;2023-07-08T23:14:11;4.93;;;3.95;;
23684;SDS011;12020;51.384;6.908;2023-07-08T23:16:47;5.88;;;4.15;;
23684;SDS011;12020;51.384;6.908;2023-07-08T23:19:20;4.50;;;3.90;;
23684;SDS011;12020;51.384;6.908;2023-07-08T23:24:18;4.55;;;4.07;;
23684;SDS011;12020;51.384;6.908;2023-07-08T23:29:41;4.77;;;4.03;;
23684;SDS011;12020;51.384;6.908;2023-07-08T23:32:10;5.18;;;3.83;;
23684;SDS011;12020;51.384;6.908;2023-07-08T23:34:37;5.85;;;3.90;;
23684;SDS011;12020;51.384;6.908;2023-07-08T23:37:16;5.13;;;4.15;;
23684;SDS011;12020;51.384;6.908;2023-07-08T23:39:41;5.10;;;4.18;;
23684;SDS011;12020;51.384;6.908;2023-07-08T23:44:44;5.47;;;4.22;;
23684;SDS011;12020;51.384;6.908;2023-07-08T23:47:23;4.90;;;4.10;;
23684;SDS011;12020;51.384;6.908;2023-07-08T23:50:15;5.47;;;4.10;;
23684;SDS011;12020;51.384;6.908;2023-07-08T23:52:46;5.20;;;4.22;;
23684;SDS011;12020;51.384;6.908;2023-07-08T23:55:21;5.13;;;4.22;;
23684;SDS011;12020;51.384;6.908;2023-07-08T23:57:52;5.38;;;4.25;;
